Time;durP1;ratioP1;P1;durP2;ratioP2;P2;SDS_P1;SDS_P2;PMS_P1;PMS_P2;Temp;Humidity;BMP_temperature;BMP_pressure;BME280_temperature;BME280_humidity;BME280_pressure;Samples;Min_cycle;Max_cycle;Signal;HPM_P1;HPM_P2
2023/05/14 00:02:14;;;;;;;5.60;3.25;;;17.00;85.20;;;;;;4992243;28;20059;-58
2023/05/14 00:04:39;;;;;;;8.82;3.22;;;17.00;85.30;;;;;;4989444;28;20057;-59
2023/05/14 00:07:05;;;;;;;7.53;3.38;;;16.90;85.20;;;;;;4991567;28;20027;-59
2023/05/14 00:09:31;;;;;;;6.85;3.33;;;16.90;85.20;;;;;;4974610;28;20038;-58
2023/05/14 00:11:57;;;;;;;3.80;3.08;;;16.90;85.30;;;;;;4990353;28;20029;-58
2023/05/14 00:14:22;;;;;;;5.40;3.20;;;16.90;85.30;;;;;;4992313;28;20050;-59
2023/05/14 00:16:48;;;;;;;8.05;3.35;;;16.90;85.30;;;;;;4989568;28;20750;-59
2023/05/14 00:19:13;;;;;;;4.75;2.92;;;16.90;85.40;;;;;;4990594;28;20066;-58
2023/05/14 00:21:39;;;;;;;3.30;2.97;;;16.90;85.40;;;;;;4990671;28;20054;-58
2023/05/14 00:24:05;;;;;;;11.07;3.40;;;16.90;85.40;;;;;;4991381;28;20491;-59
2023/05/14 00:26:30;;;;;;;7.35;3.58;;;16.80;85.40;;;;;;4989734;28;20077;-59
2023/05/14 00:28:56;;;;;;;3.70;2.95;;;16.80;85.50;;;;;;4990032;28;20121;-58
2023/05/14 00:31:21;;;;;;;6.15;3.38;;;16.80;85.60;;;;;;4992066;28;20027;-56
2023/05/14 00:33:47;;;;;;;6.43;3.00;;;16.80;85.60;;;;;;4989160;28;20046;-58
2023/05/14 00:36:12;;;;;;;3.33;2.70;;;16.80;85.70;;;;;;4991767;28;20037;-58
2023/05/14 00:38:38;;;;;;;4.70;3.33;;;16.80;85.70;;;;;;4989957;28;20134;-58
2023/05/14 00:41:03;;;;;;;4.93;3.22;;;16.80;85.80;;;;;;4987939;28;20027;-58
2023/05/14 00:43:30;;;;;;;5.40;3.30;;;16.70;85.70;;;;;;4987151;28;20039;-59
2023/05/14 00:45:56;;;;;;;6.07;3.10;;;16.70;85.80;;;;;;4988990;28;20031;-58
2023/05/14 00:48:21;;;;;;;5.25;2.90;;;16.70;85.80;;;;;;4986249;28;20034;-59
2023/05/14 00:50:48;;;;;;;3.90;2.75;;;16.70;85.90;;;;;;4986848;28;20034;-52
2023/05/14 00:53:13;;;;;;;4.13;3.08;;;16.70;85.90;;;;;;4986968;28;20031;-54
2023/05/14 00:55:40;;;;;;;3.85;3.47;;;16.70;85.90;;;;;;4986968;28;20050;-54
2023/05/14 00:58:10;;;;;;;4.05;3.10;;;16.70;86.00;;;;;;5002445;28;20491;-54
2023/05/14 01:00:36;;;;;;;4.78;2.90;;;16.70;86.00;;;;;;4988113;28;20035;-54
2023/05/14 01:03:03;;;;;;;5.03;3.30;;;16.60;86.00;;;;;;4986433;28;20032;-54
2023/05/14 01:06:13;;;;;;;7.00;2.78;;;16.60;86.00;;;;;;4972561;28;20058;-54
2023/05/14 01:09:06;;;;;;;3.65;3.15;;;16.60;86.00;;;;;;4980730;28;20047;-59
2023/05/14 01:12:02;;;;;;;6.00;3.47;;;16.60;86.10;;;;;;4987809;28;20066;-58
2023/05/14 01:14:44;;;;;;;5.72;3.00;;;16.60;86.30;;;;;;4987191;28;20476;-59
2023/05/14 01:17:10;;;;;;;5.47;3.08;;;16.60;86.30;;;;;;4988160;28;20559;-58
2023/05/14 01:19:41;;;;;;;4.30;2.80;;;16.60;86.30;;;;;;4987128;28;20122;-58
2023/05/14 01:22:07;;;;;;;5.75;2.92;;;16.50;86.20;;;;;;4987019;28;20039;-59
2023/05/14 01:24:32;;;;;;;4.47;2.60;;;16.60;86.30;;;;;;4986837;28;20076;-59
2023/05/14 01:27:09;;;;;;;6.68;3.22;;;16.60;86.20;;;;;;4986866;28;20107;-59
2023/05/14 01:29:37;;;;;;;6.70;3.38;;;16.50;86.20;;;;;;4986877;28;20490;-58
2023/05/14 01:32:04;;;;;;;6.32;3.10;;;16.50;86.20;;;;;;4986490;28;20046;-58
2023/05/14 01:34:30;;;;;;;3.55;3.10;;;16.50;86.40;;;;;;4987007;28;20035;-58
2023/05/14 01:36:55;;;;;;;4.70;3.28;;;16.50;86.40;;;;;;4986718;28;20083;-58
2023/05/14 01:39:22;;;;;;;4.28;2.97;;;16.50;86.30;;;;;;4986847;28;20114;-58
2023/05/14 01:41:47;;;;;;;9.07;3.60;;;16.50;86.40;;;;;;4986626;28;20031;-58
2023/05/14 01:44:13;;;;;;;7.97;3.45;;;16.40;86.50;;;;;;4986655;28;20037;-59
2023/05/14 01:46:38;;;;;;;3.28;2.97;;;16.40;86.50;;;;;;4985845;28;20041;-59
2023/05/14 01:49:04;;;;;;;5.07;3.05;;;16.40;86.60;;;;;;4987580;28;20038;-58
2023/05/14 01:51:29;;;;;;;4.97;3.28;;;16.40;86.70;;;;;;4985583;28;20038;-59
2023/05/14 01:53:55;;;;;;;5.32;3.22;;;16.40;86.70;;;;;;4985922;28;20039;-59
2023/05/14 01:56:22;;;;;;;4.45;3.17;;;16.40;86.70;;;;;;4986240;28;20027;-58
2023/05/14 01:58:48;;;;;;;4.90;3.30;;;16.40;86.70;;;;;;4985761;28;20043;-59
2023/05/14 02:01:14;;;;;;;4.28;3.40;;;16.40;86.60;;;;;;4985922;28;20030;-59
2023/05/14 02:03:39;;;;;;;4.68;4.07;;;16.30;87.30;;;;;;4984686;28;20117;-58
2023/05/14 02:06:05;;;;;;;4.20;3.80;;;16.30;86.80;;;;;;4986805;28;20042;-58
2023/05/14 02:08:31;;;;;;;4.32;3.80;;;16.30;86.90;;;;;;4986785;28;20022;-59
2023/05/14 02:10:56;;;;;;;4.03;3.60;;;16.30;87.00;;;;;;5017598;28;20058;-59
2023/05/14 02:13:22;;;;;;;4.70;4.20;;;16.30;87.00;;;;;;4985473;28;20491;-59
2023/05/14 02:15:48;;;;;;;6.35;4.00;;;16.30;87.10;;;;;;4986939;28;20516;-58
2023/05/14 02:18:14;;;;;;;5.25;4.15;;;16.30;87.00;;;;;;4985169;28;20042;-59
2023/05/14 02:20:39;;;;;;;8.35;4.53;;;16.20;87.00;;;;;;4985972;28;20027;-59
2023/05/14 02:23:05;;;;;;;5.28;4.28;;;16.20;87.00;;;;;;4986820;28;20041;-59
2023/05/14 02:25:30;;;;;;;4.65;4.25;;;16.30;87.20;;;;;;4987059;28;20034;-59
2023/05/14 02:27:56;;;;;;;5.00;4.50;;;16.20;87.20;;;;;;4968358;28;20355;-59
2023/05/14 02:30:21;;;;;;;5.13;4.22;;;16.20;87.20;;;;;;4985207;28;20476;-58
2023/05/14 02:32:47;;;;;;;4.47;4.07;;;16.20;87.30;;;;;;4985533;28;20034;-58
2023/05/14 02:35:12;;;;;;;7.90;4.38;;;16.20;87.30;;;;;;4985197;28;20034;-59
2023/05/14 02:37:38;;;;;;;5.13;3.88;;;16.20;87.30;;;;;;4985089;28;20058;-58
2023/05/14 02:40:04;;;;;;;6.03;4.25;;;16.20;87.30;;;;;;4985630;28;20031;-59
2023/05/14 02:42:30;;;;;;;4.68;4.28;;;16.20;87.30;;;;;;4985929;28;20038;-58
2023/05/14 02:44:55;;;;;;;5.55;4.38;;;16.20;87.40;;;;;;4984879;28;20034;-59
2023/05/14 02:47:21;;;;;;;6.38;4.10;;;16.10;87.30;;;;;;4984902;28;20023;-59
2023/05/14 02:49:46;;;;;;;6.78;4.47;;;16.10;87.30;;;;;;4986655;28;20089;-58
2023/05/14 02:52:12;;;;;;;8.48;3.83;;;16.10;87.30;;;;;;4984829;28;20030;-58
2023/05/14 02:54:37;;;;;;;5.38;4.57;;;16.10;87.40;;;;;;4985341;28;20042;-59
2023/05/14 02:57:03;;;;;;;5.43;4.25;;;16.10;87.40;;;;;;4984936;28;20057;-59
2023/05/14 02:59:29;;;;;;;4.45;4.05;;;16.10;87.30;;;;;;4986629;28;20066;-59
2023/05/14 03:01:54;;;;;;;6.43;4.53;;;16.10;87.30;;;;;;4985698;28;20022;-58
2023/05/14 03:04:20;;;;;;;4.95;4.07;;;16.10;87.40;;;;;;4983424;28;20487;-58
2023/05/14 03:06:45;;;;;;;5.30;3.85;;;16.10;87.40;;;;;;4984699;28;20130;-59
2023/05/14 03:09:11;;;;;;;4.18;3.55;;;16.10;87.40;;;;;;4985179;28;20083;-58
2023/05/14 03:11:36;;;;;;;5.82;3.97;;;16.10;87.50;;;;;;4985345;28;20110;-59
2023/05/14 03:14:02;;;;;;;5.18;4.47;;;16.00;87.50;;;;;;4983725;28;20031;-58
2023/05/14 03:16:27;;;;;;;4.97;4.45;;;16.10;87.50;;;;;;4985931;28;20034;-59
2023/05/14 03:18:53;;;;;;;7.35;4.25;;;16.00;87.50;;;;;;4985840;28;20042;-59
2023/05/14 03:21:18;;;;;;;4.65;4.22;;;16.00;87.50;;;;;;4984083;28;20113;-58
2023/05/14 03:23:44;;;;;;;6.47;4.32;;;16.00;87.50;;;;;;4984193;28;20086;-58
2023/05/14 03:26:09;;;;;;;5.55;4.40;;;16.00;87.50;;;;;;4968280;28;20033;-59
2023/05/14 03:28:35;;;;;;;5.50;4.10;;;16.00;87.60;;;;;;4985809;28;20039;-58
2023/05/14 03:31:00;;;;;;;5.18;3.97;;;16.00;87.70;;;;;;4985317;28;20031;-59
2023/05/14 03:33:26;;;;;;;7.15;3.95;;;16.00;87.70;;;;;;4982223;28;20122;-59
2023/05/14 03:35:52;;;;;;;7.90;4.15;;;16.00;87.70;;;;;;4984278;28;20034;-58
2023/05/14 03:38:17;;;;;;;5.20;4.15;;;16.00;87.90;;;;;;4984442;28;20070;-59
2023/05/14 03:40:44;;;;;;;6.00;4.35;;;15.90;87.90;;;;;;5017041;28;20053;-59
2023/05/14 03:43:10;;;;;;;7.90;4.50;;;15.90;87.90;;;;;;4983630;28;20038;-58
2023/05/14 03:45:35;;;;;;;6.53;4.38;;;15.90;87.90;;;;;;4997895;28;20034;-58
2023/05/14 03:48:01;;;;;;;6.45;5.18;;;15.90;88.50;;;;;;4982675;28;20213;-59
2023/05/14 03:50:26;;;;;;;6.82;5.10;;;15.90;87.90;;;;;;4983170;28;20054;-59
2023/05/14 03:52:52;;;;;;;6.50;4.55;;;15.90;88.00;;;;;;4983769;28;20031;-59
2023/05/14 03:55:18;;;;;;;6.93;4.85;;;15.90;88.00;;;;;;4983934;28;20507;-59
2023/05/14 03:57:44;;;;;;;10.27;4.82;;;15.90;88.00;;;;;;4982988;28;20031;-59
2023/05/14 04:00:10;;;;;;;4.68;4.22;;;15.90;88.10;;;;;;4968216;28;20023;-58
2023/05/14 04:02:36;;;;;;;6.20;4.57;;;15.90;88.10;;;;;;4980898;28;20436;-59
2023/05/14 04:05:01;;;;;;;4.47;4.07;;;15.90;88.20;;;;;;5000166;28;20078;-59
2023/05/14 04:07:27;;;;;;;6.40;4.40;;;15.90;88.20;;;;;;4984043;28;20106;-58
2023/05/14 04:09:52;;;;;;;5.28;4.30;;;15.90;88.30;;;;;;4983613;28;20027;-59
2023/05/14 04:12:18;;;;;;;4.60;4.20;;;15.90;88.20;;;;;;4984946;28;20023;-58
2023/05/14 04:14:43;;;;;;;4.63;4.18;;;15.90;88.20;;;;;;4983938;28;20087;-58
2023/05/14 04:17:09;;;;;;;4.63;4.22;;;15.90;88.20;;;;;;4987479;28;20395;-58
2023/05/14 04:19:35;;;;;;;4.43;4.03;;;15.90;88.30;;;;;;4989048;28;20538;-59
2023/05/14 04:22:00;;;;;;;4.75;4.35;;;15.80;88.40;;;;;;4985472;28;20054;-58
2023/05/14 04:24:26;;;;;;;4.40;3.80;;;15.80;88.40;;;;;;4989107;28;20515;-58
2023/05/14 04:26:51;;;;;;;4.50;4.10;;;15.90;88.50;;;;;;4986887;28;20042;-58
2023/05/14 04:29:17;;;;;;;6.90;5.20;;;15.90;88.40;;;;;;4988203;28;20078;-58
2023/05/14 04:31:43;;;;;;;10.77;5.50;;;15.90;88.40;;;;;;4987474;28;20031;-58
2023/05/14 04:34:08;;;;;;;9.35;5.05;;;15.90;88.50;;;;;;4987000;28;20042;-59
2023/05/14 04:36:34;;;;;;;6.25;4.70;;;15.80;88.50;;;;;;4988255;28;20030;-58
2023/05/14 04:39:00;;;;;;;5.38;4.53;;;15.80;88.60;;;;;;4969306;28;20906;-59
2023/05/14 04:41:25;;;;;;;6.45;4.88;;;15.80;88.60;;;;;;4986894;28;20042;-58
2023/05/14 04:43:52;;;;;;;9.55;4.50;;;15.80;88.70;;;;;;4987992;28;20113;-59
2023/05/14 04:46:18;;;;;;;5.25;4.75;;;15.80;88.70;;;;;;4986629;28;20023;-58
2023/05/14 04:48:43;;;;;;;6.50;4.53;;;15.70;88.70;;;;;;4987586;28;20055;-59
2023/05/14 04:51:09;;;;;;;5.63;4.50;;;15.70;88.70;;;;;;4967945;28;20194;-58
2023/05/14 04:53:34;;;;;;;9.45;4.57;;;15.70;88.80;;;;;;4985891;28;20027;-58
2023/05/14 04:56:00;;;;;;;7.18;4.25;;;15.70;88.80;;;;;;4986968;28;20086;-58
2023/05/14 04:58:27;;;;;;;8.50;4.43;;;15.70;88.80;;;;;;4985965;28;20031;-59
2023/05/14 05:00:53;;;;;;;5.60;3.78;;;15.70;88.90;;;;;;4987881;28;20110;-59
2023/05/14 05:03:18;;;;;;;5.60;4.30;;;15.70;88.90;;;;;;4986131;28;20063;-59
2023/05/14 05:05:44;;;;;;;4.78;3.97;;;15.70;88.90;;;;;;4985059;28;20033;-59
2023/05/14 05:08:10;;;;;;;6.20;4.30;;;15.70;88.90;;;;;;4988063;28;20039;-59
2023/05/14 05:10:35;;;;;;;6.57;4.60;;;15.70;88.90;;;;;;4986164;28;20043;-59
2023/05/14 05:13:01;;;;;;;5.57;4.10;;;15.70;88.90;;;;;;5018712;28;20038;-59
2023/05/14 05:15:26;;;;;;;6.78;4.45;;;15.70;88.90;;;;;;4986568;28;20045;-58
2023/05/14 05:17:52;;;;;;;7.15;3.97;;;15.70;89.40;;;;;;4986111;28;20023;-58
2023/05/14 05:20:17;;;;;;;6.88;4.18;;;15.60;88.80;;;;;;4984856;28;20038;-59
2023/05/14 05:22:43;;;;;;;5.50;4.10;;;15.70;88.80;;;;;;4987016;28;20034;-59
2023/05/14 05:25:10;;;;;;;4.43;4.03;;;15.60;88.70;;;;;;5017415;28;20074;-59
2023/05/14 05:27:36;;;;;;;4.55;3.88;;;15.70;88.90;;;;;;4986265;28;20471;-59
2023/05/14 05:30:02;;;;;;;3.72;3.33;;;15.70;88.90;;;;;;4987311;28;20112;-58
2023/05/14 05:32:28;;;;;;;4.47;3.85;;;15.60;88.90;;;;;;4987306;28;20022;-59
2023/05/14 05:34:53;;;;;;;4.38;3.90;;;15.60;88.90;;;;;;4985318;28;20038;-59
2023/05/14 05:37:19;;;;;;;4.10;3.70;;;15.70;88.90;;;;;;4985027;28;20037;-59
2023/05/14 05:39:46;;;;;;;5.53;3.72;;;15.70;88.90;;;;;;4987894;28;20027;-58
2023/05/14 05:42:12;;;;;;;4.68;3.40;;;15.70;88.90;;;;;;4985785;28;20031;-58
2023/05/14 05:44:37;;;;;;;4.95;3.67;;;15.60;88.90;;;;;;5018114;28;20054;-58
2023/05/14 05:47:03;;;;;;;6.35;3.63;;;15.60;88.90;;;;;;4986997;28;20033;-59
2023/05/14 05:49:28;;;;;;;4.50;3.70;;;15.60;88.90;;;;;;4986834;28;20042;-58
2023/05/14 05:51:54;;;;;;;4.50;3.80;;;15.70;88.80;;;;;;4987523;28;20329;-58
2023/05/14 05:54:19;;;;;;;3.88;3.47;;;15.70;88.70;;;;;;4985659;28;20038;-59
2023/05/14 05:56:45;;;;;;;4.20;3.60;;;15.60;88.60;;;;;;4987146;28;20027;-59
2023/05/14 05:59:11;;;;;;;7.32;3.72;;;15.70;88.70;;;;;;4985613;28;20122;-59
2023/05/14 06:01:36;;;;;;;6.00;3.72;;;15.70;88.60;;;;;;4986700;28;20031;-59
2023/05/14 06:04:04;;;;;;;3.90;2.97;;;15.70;88.60;;;;;;4984521;28;20043;-58
2023/05/14 06:06:31;;;;;;;4.47;3.03;;;15.70;88.60;;;;;;4986054;28;20050;-58
2023/05/14 06:08:57;;;;;;;5.75;3.70;;;15.70;88.60;;;;;;4985354;28;20046;-59
2023/05/14 06:11:22;;;;;;;4.50;3.63;;;15.70;88.70;;;;;;4986186;28;20031;-58
2023/05/14 06:13:48;;;;;;;4.28;3.50;;;15.70;88.60;;;;;;4986317;28;20472;-59
2023/05/14 06:16:14;;;;;;;3.60;3.30;;;15.70;88.60;;;;;;5001748;28;20035;-59
2023/05/14 06:18:39;;;;;;;5.10;3.47;;;15.70;88.60;;;;;;4985698;28;20031;-58
2023/05/14 06:21:05;;;;;;;4.25;3.45;;;15.70;88.60;;;;;;4984792;28;20050;-58
2023/05/14 06:23:31;;;;;;;5.13;3.03;;;15.70;88.60;;;;;;4984854;28;20109;-58
2023/05/14 06:25:56;;;;;;;3.88;3.47;;;15.70;88.60;;;;;;4985000;28;20111;-58
2023/05/14 06:28:22;;;;;;;4.95;3.13;;;15.70;88.60;;;;;;4984991;28;20041;-59
2023/05/14 06:30:52;;;;;;;4.65;3.40;;;15.70;88.70;;;;;;4983852;28;20035;-58
2023/05/14 06:33:19;;;;;;;4.07;2.95;;;15.70;88.70;;;;;;4985891;28;20069;-59
2023/05/14 06:35:45;;;;;;;4.30;3.50;;;15.70;88.70;;;;;;4986701;28;20038;-58
2023/05/14 06:38:11;;;;;;;4.10;3.40;;;15.70;88.70;;;;;;4985435;28;20480;-59
2023/05/14 06:40:36;;;;;;;3.40;3.10;;;15.70;88.70;;;;;;4984749;28;20042;-58
2023/05/14 06:43:02;;;;;;;4.45;3.40;;;15.70;88.70;;;;;;4984387;28;20061;-59
2023/05/14 06:45:27;;;;;;;4.40;3.03;;;15.70;88.70;;;;;;4985851;28;20039;-59
2023/05/14 06:47:53;;;;;;;3.53;3.20;;;15.70;88.80;;;;;;4984315;28;20385;-59
2023/05/14 06:50:19;;;;;;;3.85;3.10;;;15.70;88.70;;;;;;4985722;28;20444;-59
2023/05/14 06:52:45;;;;;;;3.20;2.90;;;15.70;88.80;;;;;;4983418;28;20030;-58
2023/05/14 06:55:10;;;;;;;3.53;3.22;;;15.70;88.80;;;;;;4984147;28;20045;-59
2023/05/14 06:57:36;;;;;;;3.30;3.00;;;15.70;88.90;;;;;;4983856;28;20030;-58
2023/05/14 07:00:02;;;;;;;3.35;3.05;;;15.70;88.90;;;;;;4984980;28;20035;-59
2023/05/14 07:02:27;;;;;;;3.50;3.20;;;15.70;88.90;;;;;;4983379;28;20042;-58
2023/05/14 07:04:53;;;;;;;4.45;2.88;;;15.70;88.80;;;;;;5017036;28;20065;-58
2023/05/14 07:07:20;;;;;;;3.38;2.75;;;15.80;88.80;;;;;;4985347;28;20035;-58
2023/05/14 07:09:46;;;;;;;3.00;2.75;;;15.80;88.70;;;;;;4985545;28;20023;-59
2023/05/14 07:12:11;;;;;;;3.75;3.35;;;15.80;88.60;;;;;;4985564;28;20092;-58
2023/05/14 07:14:37;;;;;;;3.40;3.10;;;15.80;88.60;;;;;;4984436;28;20054;-58
2023/05/14 07:17:02;;;;;;;3.45;2.80;;;15.80;88.70;;;;;;4984166;28;20249;-59
2023/05/14 07:19:29;;;;;;;2.88;2.67;;;15.80;89.20;;;;;;4985284;28;20039;-59
2023/05/14 07:21:55;;;;;;;3.30;3.00;;;15.80;88.60;;;;;;4984206;28;20042;-58
2023/05/14 07:24:21;;;;;;;3.85;3.17;;;15.80;88.60;;;;;;4984178;28;20042;-59
2023/05/14 07:26:46;;;;;;;3.30;3.00;;;15.80;88.60;;;;;;4984408;28;20050;-59
2023/05/14 07:29:12;;;;;;;3.90;3.45;;;15.80;88.70;;;;;;4983173;28;20045;-59
2023/05/14 07:31:37;;;;;;;3.15;2.85;;;15.80;88.80;;;;;;4983559;28;20023;-59
2023/05/14 07:34:03;;;;;;;3.53;3.22;;;15.80;88.90;;;;;;4985386;28;20134;-59
2023/05/14 07:36:28;;;;;;;5.13;2.80;;;15.90;89.00;;;;;;4985323;28;20058;-59
2023/05/14 07:38:54;;;;;;;3.30;3.00;;;15.80;89.00;;;;;;4983929;28;20046;-59
2023/05/14 07:41:20;;;;;;;3.40;3.10;;;15.90;89.30;;;;;;4964002;28;20027;-58
2023/05/14 07:43:45;;;;;;;3.70;2.92;;;15.90;89.30;;;;;;4970513;28;20067;-59
2023/05/14 07:46:11;;;;;;;3.55;2.90;;;15.90;89.20;;;;;;5001963;28;20078;-59
2023/05/14 07:48:36;;;;;;;5.28;3.50;;;16.00;89.20;;;;;;4984002;28;20039;-59
2023/05/14 07:51:02;;;;;;;6.35;3.25;;;16.00;89.10;;;;;;4987110;28;20027;-59
2023/05/14 07:53:28;;;;;;;3.38;3.08;;;16.00;89.10;;;;;;4988012;28;20067;-58
2023/05/14 07:55:53;;;;;;;3.58;2.92;;;16.00;89.00;;;;;;4987694;28;20053;-58
2023/05/14 07:58:19;;;;;;;3.67;2.85;;;16.10;89.00;;;;;;4986531;28;20031;-58
2023/05/14 08:00:44;;;;;;;3.80;3.20;;;16.10;88.90;;;;;;4988586;28;20038;-59
2023/05/14 08:03:10;;;;;;;3.70;2.83;;;16.10;89.00;;;;;;4988264;28;20027;-57
2023/05/14 08:05:35;;;;;;;3.13;2.72;;;16.10;89.00;;;;;;4986847;28;20026;-58
2023/05/14 08:08:01;;;;;;;3.17;2.88;;;16.20;89.10;;;;;;4985021;28;20077;-58
2023/05/14 08:10:27;;;;;;;3.25;2.95;;;16.20;89.20;;;;;;4987247;28;20062;-59
2023/05/14 08:12:52;;;;;;;5.32;3.03;;;16.20;89.40;;;;;;4987923;28;20022;-59
2023/05/14 08:15:18;;;;;;;3.95;3.35;;;16.20;89.50;;;;;;4986653;28;20046;-59
2023/05/14 08:17:43;;;;;;;4.47;3.03;;;16.20;89.70;;;;;;4986559;28;20033;-58
2023/05/14 08:20:10;;;;;;;4.15;2.78;;;16.20;89.70;;;;;;4975967;28;20127;-59
2023/05/14 08:22:36;;;;;;;3.38;2.83;;;16.30;90.00;;;;;;4988535;28;20360;-59
2023/05/14 08:25:02;;;;;;;5.38;3.05;;;16.30;90.00;;;;;;4985373;28;20031;-59
2023/05/14 08:27:28;;;;;;;5.38;3.13;;;16.30;90.00;;;;;;4982946;28;20042;-59
2023/05/14 08:29:53;;;;;;;3.83;3.00;;;16.30;90.30;;;;;;4985493;28;20031;-59
2023/05/14 08:32:19;;;;;;;6.55;3.20;;;16.30;90.10;;;;;;4987994;28;20030;-59
2023/05/14 08:34:45;;;;;;;6.00;3.65;;;16.40;90.10;;;;;;4983601;28;20035;-59
2023/05/14 08:37:10;;;;;;;10.75;4.13;;;16.40;90.20;;;;;;4986595;28;20081;-59
2023/05/14 08:39:36;;;;;;;12.38;4.13;;;16.40;90.20;;;;;;4987996;28;20062;-59
2023/05/14 08:42:01;;;;;;;18.80;4.15;;;16.50;90.20;;;;;;4985384;28;20041;-59
2023/05/14 08:44:32;;;;;;;31.48;6.18;;;16.50;90.10;;;;;;4986847;28;20068;-59
2023/05/14 08:46:57;;;;;;;50.30;9.15;;;16.50;90.10;;;;;;4985859;28;20108;-59
2023/05/14 08:49:42;;;;;;;24.40;5.65;;;16.50;90.30;;;;;;4982117;28;20130;-59
2023/05/14 08:52:08;;;;;;;33.42;6.45;;;16.60;90.30;;;;;;4985435;28;20047;-59
2023/05/14 08:54:34;;;;;;;27.23;7.25;;;16.60;90.30;;;;;;4985037;28;20042;-58
2023/05/14 08:56:59;;;;;;;114.15;14.95;;;16.60;90.40;;;;;;4984977;28;20031;-59
2023/05/14 08:59:25;;;;;;;82.45;12.27;;;16.70;90.70;;;;;;4985434;28;20043;-59
2023/05/14 09:01:51;;;;;;;78.43;12.25;;;16.80;90.70;;;;;;4982058;28;20424;-59
2023/05/14 09:04:20;;;;;;;78.70;11.50;;;16.80;90.60;;;;;;4967656;28;20479;-58
2023/05/14 09:06:48;;;;;;;69.07;9.88;;;16.80;90.70;;;;;;4985787;28;20042;-59
2023/05/14 09:09:13;;;;;;;89.97;12.35;;;16.80;90.60;;;;;;4981251;28;20045;-59
2023/05/14 09:11:45;;;;;;;73.10;11.63;;;16.90;90.60;;;;;;4986887;28;20122;-59
2023/05/14 09:14:11;;;;;;;62.63;11.35;;;16.90;90.70;;;;;;4985257;28;20035;-59
2023/05/14 09:16:36;;;;;;;107.50;14.55;;;16.90;90.60;;;;;;4985862;28;20046;-59
2023/05/14 09:19:03;;;;;;;123.75;16.83;;;17.00;90.60;;;;;;4980828;28;20026;-59
2023/05/14 09:21:29;;;;;;;117.18;15.98;;;17.00;90.60;;;;;;4985794;28;20031;-58
2023/05/14 09:23:55;;;;;;;121.63;16.73;;;17.00;90.60;;;;;;4984367;28;20563;-59
2023/05/14 09:26:27;;;;;;;171.30;19.92;;;17.10;90.50;;;;;;4984291;28;20105;-58
2023/05/14 09:28:55;;;;;;;134.98;17.90;;;17.10;90.50;;;;;;4983924;28;20122;-59
2023/05/14 09:31:20;;;;;;;124.55;16.33;;;17.10;90.50;;;;;;4985664;28;20031;-59
2023/05/14 09:33:50;;;;;;;112.15;15.75;;;17.20;90.50;;;;;;4982862;28;20531;-59
2023/05/14 09:36:15;;;;;;;139.02;16.52;;;17.20;90.50;;;;;;4984044;28;20027;-59
2023/05/14 09:38:41;;;;;;;136.13;16.52;;;17.30;90.40;;;;;;4982234;28;20041;-59
2023/05/14 09:41:06;;;;;;;116.10;16.45;;;17.30;90.20;;;;;;4983186;28;20126;-59
2023/05/14 09:43:32;;;;;;;147.65;19.02;;;17.40;90.20;;;;;;4983462;28;20154;-59
2023/05/14 09:45:57;;;;;;;163.50;19.98;;;17.40;90.20;;;;;;4967727;28;20170;-59
2023/05/14 09:48:24;;;;;;;194.52;22.98;;;17.50;90.20;;;;;;4981886;28;20153;-59
2023/05/14 09:50:50;;;;;;;108.53;17.33;;;17.50;90.20;;;;;;4984077;28;20037;-59
2023/05/14 09:53:16;;;;;;;95.90;14.07;;;17.60;90.10;;;;;;4964843;28;20030;-59
2023/05/14 09:55:42;;;;;;;113.15;13.30;;;17.60;89.90;;;;;;4962753;28;20420;-59
2023/05/14 09:58:07;;;;;;;147.68;17.67;;;17.70;89.80;;;;;;4979751;28;20069;-59
2023/05/14 10:00:33;;;;;;;145.68;18.55;;;17.70;89.60;;;;;;4985641;28;20547;-59
2023/05/14 10:02:58;;;;;;;131.90;17.35;;;17.80;90.00;;;;;;4963839;28;20062;-59
2023/05/14 10:05:25;;;;;;;126.95;17.77;;;17.80;89.80;;;;;;4982814;28;20035;-59
2023/05/14 10:07:52;;;;;;;199.05;20.35;;;17.90;89.80;;;;;;4982729;28;20081;-59
2023/05/14 10:10:18;;;;;;;145.52;19.42;;;17.90;89.70;;;;;;4980179;28;20074;-58
2023/05/14 10:12:56;;;;;;;142.95;18.73;;;18.00;89.80;;;;;;4983236;28;20042;-59
2023/05/14 10:15:25;;;;;;;142.35;19.67;;;18.00;89.70;;;;;;4979937;28;20031;-59
2023/05/14 10:17:55;;;;;;;164.18;21.75;;;18.00;89.70;;;;;;4979766;28;20057;-59
2023/05/14 10:20:20;;;;;;;155.27;19.88;;;18.00;90.00;;;;;;4982133;28;20085;-59
2023/05/14 10:22:46;;;;;;;197.48;24.40;;;18.10;90.10;;;;;;4982816;28;20033;-58
2023/05/14 10:25:11;;;;;;;177.60;23.30;;;18.10;90.20;;;;;;4979492;28;20376;-58
2023/05/14 10:27:37;;;;;;;173.93;22.27;;;18.10;90.20;;;;;;4994910;28;20072;-59
2023/05/14 10:30:05;;;;;;;184.18;21.50;;;18.20;90.30;;;;;;4980276;28;20042;-59
2023/05/14 10:32:31;;;;;;;187.55;21.33;;;18.20;90.20;;;;;;4982643;28;20026;-59
2023/05/14 10:34:57;;;;;;;228.10;27.08;;;18.20;90.20;;;;;;4984212;28;20064;-59
2023/05/14 10:37:24;;;;;;;188.82;22.30;;;18.30;90.20;;;;;;4984459;28;20053;-59
2023/05/14 10:39:57;;;;;;;187.82;24.23;;;18.30;90.10;;;;;;4983042;28;20034;-58
2023/05/14 10:42:27;;;;;;;173.65;23.00;;;18.40;90.20;;;;;;4978030;28;20039;-59
2023/05/14 10:44:57;;;;;;;196.10;24.30;;;18.40;89.90;;;;;;4965220;28;20126;-58
2023/05/14 10:47:27;;;;;;;204.73;25.75;;;18.50;90.00;;;;;;5006818;28;20431;-59
2023/05/14 10:49:54;;;;;;;225.43;26.05;;;18.50;89.50;;;;;;4981023;28;20042;-59
2023/05/14 10:52:20;;;;;;;232.25;26.17;;;18.60;89.50;;;;;;4981889;28;20031;-59
2023/05/14 10:55:08;;;;;;;226.02;26.58;;;18.60;89.50;;;;;;4978733;28;20093;-59
2023/05/14 10:57:36;;;;;;;197.35;22.52;;;18.70;89.40;;;;;;4981993;28;20084;-59
2023/05/14 11:00:02;;;;;;;189.98;23.20;;;18.70;89.10;;;;;;4964510;28;20067;-59
2023/05/14 11:02:38;;;;;;;252.85;26.27;;;18.80;88.80;;;;;;4980700;28;20031;-59
2023/05/14 11:05:12;;;;;;;286.52;33.35;;;18.80;88.30;;;;;;4983774;28;20041;-57
2023/05/14 11:07:39;;;;;;;296.92;33.90;;;18.80;88.50;;;;;;4984487;28;20026;-59
2023/05/14 11:10:09;;;;;;;254.23;28.23;;;18.80;88.20;;;;;;4985077;28;20031;-58
2023/05/14 11:12:36;;;;;;;263.80;29.45;;;18.80;88.00;;;;;;4984953;28;20027;-58
2023/05/14 11:15:05;;;;;;;229.60;29.15;;;18.90;88.00;;;;;;4967695;28;20039;-58
2023/05/14 11:17:30;;;;;;;265.05;29.25;;;18.90;87.80;;;;;;4985110;28;20101;-58
2023/05/14 11:19:56;;;;;;;385.95;41.97;;;19.00;87.50;;;;;;4985458;28;20042;-59
2023/05/14 11:22:22;;;;;;;304.00;32.10;;;19.00;87.30;;;;;;4984768;28;20082;-59
2023/05/14 11:24:48;;;;;;;223.90;28.77;;;19.10;87.10;;;;;;4984692;28;20094;-59
2023/05/14 11:27:13;;;;;;;205.23;25.45;;;19.20;86.90;;;;;;4982630;28;20111;-59
2023/05/14 11:29:43;;;;;;;232.48;25.33;;;19.30;86.60;;;;;;4988862;28;20039;-57
2023/05/14 11:32:09;;;;;;;181.48;22.60;;;19.30;86.10;;;;;;4986338;28;20050;-58
2023/05/14 11:34:36;;;;;;;233.43;25.83;;;19.30;85.70;;;;;;4980470;28;21048;-59
2023/05/14 11:37:03;;;;;;;257.20;31.75;;;19.30;85.40;;;;;;5014782;28;20464;-59
2023/05/14 11:39:30;;;;;;;266.35;29.60;;;19.30;85.50;;;;;;4983789;28;20035;-59
2023/05/14 11:41:56;;;;;;;223.18;26.88;;;19.30;85.70;;;;;;4965060;28;20038;-59
2023/05/14 11:44:22;;;;;;;225.93;27.83;;;19.40;85.80;;;;;;4980852;28;20030;-59
2023/05/14 11:46:57;;;;;;;205.57;27.45;;;19.40;85.80;;;;;;4967193;28;20055;-59
2023/05/14 11:49:23;;;;;;;250.15;29.73;;;19.40;86.10;;;;;;4978063;28;20026;-59
2023/05/14 11:51:56;;;;;;;252.80;33.40;;;19.40;85.90;;;;;;4981152;28;20042;-59
2023/05/14 11:54:21;;;;;;;238.07;31.13;;;19.40;86.00;;;;;;4980305;28;20073;-59
2023/05/14 11:56:50;;;;;;;228.73;27.30;;;19.50;86.10;;;;;;4981293;28;20046;-59
2023/05/14 11:59:16;;;;;;;257.23;29.63;;;19.50;86.20;;;;;;4983496;28;21280;-58
2023/05/14 12:01:44;;;;;;;234.25;29.33;;;19.50;85.90;;;;;;4982726;28;20479;-59
2023/05/14 12:04:09;;;;;;;204.45;27.05;;;19.50;85.90;;;;;;4979081;28;20070;-59
2023/05/14 12:06:35;;;;;;;234.65;26.90;;;19.50;85.90;;;;;;4983409;28;20019;-59
2023/05/14 12:09:01;;;;;;;296.48;36.63;;;19.60;85.90;;;;;;4973507;28;20066;-59
2023/05/14 12:11:30;;;;;;;271.65;32.90;;;19.60;86.00;;;;;;4981136;28;20022;-60
2023/05/14 12:13:56;;;;;;;247.98;29.65;;;19.50;86.10;;;;;;4954339;28;20053;-59
2023/05/14 12:16:21;;;;;;;204.70;27.95;;;19.60;86.20;;;;;;4963513;28;20066;-59
2023/05/14 12:18:47;;;;;;;271.20;33.50;;;19.60;86.20;;;;;;5012665;28;20066;-59
2023/05/14 12:21:13;;;;;;;253.77;32.40;;;19.60;86.30;;;;;;4981749;28;20044;-59
2023/05/14 12:23:38;;;;;;;264.27;30.73;;;19.50;86.30;;;;;;4970367;28;20031;-60
2023/05/14 12:26:05;;;;;;;243.32;32.33;;;19.50;86.20;;;;;;4984090;28;20039;-59
2023/05/14 12:28:31;;;;;;;228.57;29.83;;;19.50;86.10;;;;;;4982667;28;20034;-59
2023/05/14 12:30:56;;;;;;;276.27;32.72;;;19.50;86.00;;;;;;4983708;28;20026;-59
2023/05/14 12:33:25;;;;;;;230.85;32.35;;;19.50;86.80;;;;;;4981532;28;20062;-59
2023/05/14 12:35:52;;;;;;;255.93;30.90;;;19.50;86.70;;;;;;4982754;28;20031;-59